sensor_id;sensor_type;location;lat;lon;timestamp;temperature;humidity
12329;DHT22;6230;52.390;10.256;2024-01-30T00:01:11;9.70;60.20
12329;DHT22;6230;52.390;10.256;2024-01-30T00:03:37;9.70;60.30
12329;DHT22;6230;52.390;10.256;2024-01-30T00:06:06;9.70;60.20
12329;DHT22;6230;52.390;10.256;2024-01-30T00:08:31;9.70;60.30
12329;DHT22;6230;52.390;10.256;2024-01-30T00:10:57;9.70;60.30
12329;DHT22;6230;52.390;10.256;2024-01-30T00:13:22;9.70;60.40
12329;DHT22;6230;52.390;10.256;2024-01-30T00:15:48;9.70;60.50
12329;DHT22;6230;52.390;10.256;2024-01-30T00:18:14;9.70;60.50
12329;DHT22;6230;52.390;10.256;2024-01-30T00:20:40;9.70;60.50
12329;DHT22;6230;52.390;10.256;2024-01-30T00:23:06;9.70;60.50
12329;DHT22;6230;52.390;10.256;2024-01-30T00:25:31;9.70;60.40
12329;DHT22;6230;52.390;10.256;2024-01-30T00:27:58;9.70;60.40
12329;DHT22;6230;52.390;10.256;2024-01-30T00:30:24;9.70;60.40
12329;DHT22;6230;52.390;10.256;2024-01-30T00:32:49;9.70;60.40
12329;DHT22;6230;52.390;10.256;2024-01-30T00:35:15;9.70;60.30
12329;DHT22;6230;52.390;10.256;2024-01-30T00:37:40;9.70;60.40
12329;DHT22;6230;52.390;10.256;2024-01-30T00:40:06;9.70;60.50
12329;DHT22;6230;52.390;10.256;2024-01-30T00:42:32;9.70;60.50
12329;DHT22;6230;52.390;10.256;2024-01-30T00:44:58;9.60;60.40
12329;DHT22;6230;52.390;10.256;2024-01-30T00:47:23;9.60;60.40
12329;DHT22;6230;52.390;10.256;2024-01-30T00:49:49;9.60;60.40
12329;DHT22;6230;52.390;10.256;2024-01-30T00:52:15;9.60;60.50
12329;DHT22;6230;52.390;10.256;2024-01-30T00:54:41;9.60;60.50
12329;DHT22;6230;52.390;10.256;2024-01-30T00:57:07;9.50;60.40
12329;DHT22;6230;52.390;10.256;2024-01-30T00:59:32;9.50;60.40
12329;DHT22;6230;52.390;10.256;2024-01-30T01:01:58;9.50;60.50
12329;DHT22;6230;52.390;10.256;2024-01-30T01:04:23;9.50;60.50
12329;DHT22;6230;52.390;10.256;2024-01-30T01:06:49;9.40;60.60
12329;DHT22;6230;52.390;10.256;2024-01-30T01:09:15;9.40;60.70
12329;DHT22;6230;52.390;10.256;2024-01-30T01:11:40;9.30;60.70
12329;DHT22;6230;52.390;10.256;2024-01-30T01:14:06;9.30;60.70
12329;DHT22;6230;52.390;10.256;2024-01-30T01:16:31;9.30;60.70
12329;DHT22;6230;52.390;10.256;2024-01-30T01:18:57;9.20;60.70
12329;DHT22;6230;52.390;10.256;2024-01-30T01:21:22;9.20;60.70
12329;DHT22;6230;52.390;10.256;2024-01-30T01:23:48;9.20;60.70
12329;DHT22;6230;52.390;10.256;2024-01-30T01:26:14;9.20;60.70
12329;DHT22;6230;52.390;10.256;2024-01-30T01:28:40;9.20;60.70
12329;DHT22;6230;52.390;10.256;2024-01-30T01:31:06;9.20;60.80
12329;DHT22;6230;52.390;10.256;2024-01-30T01:33:32;9.20;60.90
12329;DHT22;6230;52.390;10.256;2024-01-30T01:35:59;9.20;60.90
12329;DHT22;6230;52.390;10.256;2024-01-30T01:38:25;9.20;60.80
12329;DHT22;6230;52.390;10.256;2024-01-30T01:40:51;9.10;60.70
12329;DHT22;6230;52.390;10.256;2024-01-30T01:43:16;9.10;60.80
12329;DHT22;6230;52.390;10.256;2024-01-30T01:45:42;9.10;60.80
12329;DHT22;6230;52.390;10.256;2024-01-30T01:48:08;9.10;60.80
12329;DHT22;6230;52.390;10.256;2024-01-30T01:50:34;9.10;60.90
12329;DHT22;6230;52.390;10.256;2024-01-30T01:53:01;9.10;61.00
12329;DHT22;6230;52.390;10.256;2024-01-30T01:55:28;9.10;61.10
12329;DHT22;6230;52.390;10.256;2024-01-30T01:57:55;9.10;61.20
12329;DHT22;6230;52.390;10.256;2024-01-30T02:00:20;9.10;61.20
12329;DHT22;6230;52.390;10.256;2024-01-30T02:02:46;9.10;61.30
12329;DHT22;6230;52.390;10.256;2024-01-30T02:05:12;9.10;61.40
12329;DHT22;6230;52.390;10.256;2024-01-30T02:07:38;9.10;61.40
12329;DHT22;6230;52.390;10.256;2024-01-30T02:10:04;9.10;61.30
12329;DHT22;6230;52.390;10.256;2024-01-30T02:12:30;9.10;61.40
12329;DHT22;6230;52.390;10.256;2024-01-30T02:14:56;9.10;61.40
12329;DHT22;6230;52.390;10.256;2024-01-30T02:17:21;9.10;61.30
12329;DHT22;6230;52.390;10.256;2024-01-30T02:19:48;9.10;61.40
12329;DHT22;6230;52.390;10.256;2024-01-30T02:22:14;9.10;61.30
12329;DHT22;6230;52.390;10.256;2024-01-30T02:24:40;9.10;61.40
12329;DHT22;6230;52.390;10.256;2024-01-30T02:27:06;9.10;61.40
12329;DHT22;6230;52.390;10.256;2024-01-30T02:29:31;9.10;61.40
12329;DHT22;6230;52.390;10.256;2024-01-30T02:31:57;9.10;61.40
12329;DHT22;6230;52.390;10.256;2024-01-30T02:34:23;9.10;61.50
12329;DHT22;6230;52.390;10.256;2024-01-30T02:36:49;9.10;61.50
12329;DHT22;6230;52.390;10.256;2024-01-30T02:39:14;9.10;61.50
12329;DHT22;6230;52.390;10.256;2024-01-30T02:41:40;9.10;61.60
12329;DHT22;6230;52.390;10.256;2024-01-30T02:44:05;9.10;61.60
12329;DHT22;6230;52.390;10.256;2024-01-30T02:46:31;9.10;61.70
12329;DHT22;6230;52.390;10.256;2024-01-30T02:48:56;9.10;61.60
12329;DHT22;6230;52.390;10.256;2024-01-30T02:51:22;9.10;61.60
12329;DHT22;6230;52.390;10.256;2024-01-30T02:53:48;9.10;61.60
12329;DHT22;6230;52.390;10.256;2024-01-30T02:56:13;9.20;62.40
12329;DHT22;6230;52.390;10.256;2024-01-30T02:58:39;9.20;61.60
12329;DHT22;6230;52.390;10.256;2024-01-30T03:01:06;9.20;61.50
12329;DHT22;6230;52.390;10.256;2024-01-30T03:03:31;9.20;61.40
12329;DHT22;6230;52.390;10.256;2024-01-30T03:05:57;9.20;62.30
12329;DHT22;6230;52.390;10.256;2024-01-30T03:08:23;9.20;61.50
12329;DHT22;6230;52.390;10.256;2024-01-30T03:10:48;9.20;61.50
12329;DHT22;6230;52.390;10.256;2024-01-30T03:13:14;9.20;61.50
12329;DHT22;6230;52.390;10.256;2024-01-30T03:15:39;9.20;61.50
12329;DHT22;6230;52.390;10.256;2024-01-30T03:18:05;9.20;61.50
12329;DHT22;6230;52.390;10.256;2024-01-30T03:20:31;9.20;61.50
12329;DHT22;6230;52.390;10.256;2024-01-30T03:22:57;9.20;61.50
12329;DHT22;6230;52.390;10.256;2024-01-30T03:25:25;9.20;61.50
12329;DHT22;6230;52.390;10.256;2024-01-30T03:27:50;9.10;61.50
12329;DHT22;6230;52.390;10.256;2024-01-30T03:30:16;9.20;61.60
12329;DHT22;6230;52.390;10.256;2024-01-30T03:32:42;9.20;61.60
12329;DHT22;6230;52.390;10.256;2024-01-30T03:35:08;9.20;61.60
12329;DHT22;6230;52.390;10.256;2024-01-30T03:37:34;9.20;61.60
12329;DHT22;6230;52.390;10.256;2024-01-30T03:40:01;9.20;61.60
12329;DHT22;6230;52.390;10.256;2024-01-30T03:42:26;9.20;61.60
12329;DHT22;6230;52.390;10.256;2024-01-30T03:44:52;9.20;61.80
12329;DHT22;6230;52.390;10.256;2024-01-30T03:47:19;9.20;61.90
12329;DHT22;6230;52.390;10.256;2024-01-30T03:49:45;9.20;62.00
12329;DHT22;6230;52.390;10.256;2024-01-30T03:52:10;9.20;62.70
12329;DHT22;6230;52.390;10.256;2024-01-30T03:54:36;9.20;62.00
12329;DHT22;6230;52.390;10.256;2024-01-30T03:57:01;9.20;62.00
12329;DHT22;6230;52.390;10.256;2024-01-30T03:59:27;9.20;62.00
12329;DHT22;6230;52.390;10.256;2024-01-30T04:01:54;9.20;61.90
12329;DHT22;6230;52.390;10.256;2024-01-30T04:04:20;9.20;61.90
12329;DHT22;6230;52.390;10.256;2024-01-30T04:06:46;9.30;62.00
12329;DHT22;6230;52.390;10.256;2024-01-30T04:09:12;9.20;62.10
12329;DHT22;6230;52.390;10.256;2024-01-30T04:11:39;9.20;62.30
12329;DHT22;6230;52.390;10.256;2024-01-30T04:14:04;9.20;62.40
12329;DHT22;6230;52.390;10.256;2024-01-30T04:16:30;9.20;62.60
12329;DHT22;6230;52.390;10.256;2024-01-30T04:18:56;9.20;62.70
12329;DHT22;6230;52.390;10.256;2024-01-30T04:21:21;9.20;62.70
12329;DHT22;6230;52.390;10.256;2024-01-30T04:23:48;9.30;62.70
12329;DHT22;6230;52.390;10.256;2024-01-30T04:26:14;9.30;62.80
12329;DHT22;6230;52.390;10.256;2024-01-30T04:28:41;9.20;62.70
12329;DHT22;6230;52.390;10.256;2024-01-30T04:31:07;9.30;62.70
12329;DHT22;6230;52.390;10.256;2024-01-30T04:33:33;9.30;62.80
12329;DHT22;6230;52.390;10.256;2024-01-30T04:35:59;9.20;62.70
12329;DHT22;6230;52.390;10.256;2024-01-30T04:38:25;9.30;62.80
12329;DHT22;6230;52.390;10.256;2024-01-30T04:40:50;9.30;62.80
12329;DHT22;6230;52.390;10.256;2024-01-30T04:43:16;9.30;62.80
12329;DHT22;6230;52.390;10.256;2024-01-30T04:45:41;9.30;62.80
12329;DHT22;6230;52.390;10.256;2024-01-30T04:48:07;9.30;62.70
12329;DHT22;6230;52.390;10.256;2024-01-30T04:50:33;9.30;62.60
12329;DHT22;6230;52.390;10.256;2024-01-30T04:52:58;9.30;62.60
12329;DHT22;6230;52.390;10.256;2024-01-30T04:55:24;9.30;62.50
12329;DHT22;6230;52.390;10.256;2024-01-30T04:57:49;9.30;62.40
12329;DHT22;6230;52.390;10.256;2024-01-30T05:00:15;9.30;62.30
12329;DHT22;6230;52.390;10.256;2024-01-30T05:02:41;9.40;62.40
12329;DHT22;6230;52.390;10.256;2024-01-30T05:05:07;9.30;62.20
12329;DHT22;6230;52.390;10.256;2024-01-30T05:07:33;9.30;62.30
12329;DHT22;6230;52.390;10.256;2024-01-30T05:09:59;9.30;62.40
12329;DHT22;6230;52.390;10.256;2024-01-30T05:12:25;9.20;62.40
12329;DHT22;6230;52.390;10.256;2024-01-30T05:14:51;9.20;62.40
12329;DHT22;6230;52.390;10.256;2024-01-30T05:17:16;9.20;62.50
12329;DHT22;6230;52.390;10.256;2024-01-30T05:19:43;9.20;62.50
12329;DHT22;6230;52.390;10.256;2024-01-30T05:22:09;9.20;62.60
12329;DHT22;6230;52.390;10.256;2024-01-30T05:24:35;9.20;62.70
12329;DHT22;6230;52.390;10.256;2024-01-30T05:27:01;9.20;62.70
12329;DHT22;6230;52.390;10.256;2024-01-30T05:29:27;9.20;62.70
12329;DHT22;6230;52.390;10.256;2024-01-30T05:31:52;9.20;62.70
12329;DHT22;6230;52.390;10.256;2024-01-30T05:34:18;9.20;62.70
12329;DHT22;6230;52.390;10.256;2024-01-30T05:36:43;9.20;62.90
12329;DHT22;6230;52.390;10.256;2024-01-30T05:39:09;9.10;62.90
12329;DHT22;6230;52.390;10.256;2024-01-30T05:41:35;9.10;63.00
12329;DHT22;6230;52.390;10.256;2024-01-30T05:44:01;9.10;63.00
12329;DHT22;6230;52.390;10.256;2024-01-30T05:46:26;9.10;63.00
12329;DHT22;6230;52.390;10.256;2024-01-30T05:48:52;9.10;63.10
12329;DHT22;6230;52.390;10.256;2024-01-30T05:51:18;9.10;63.00
12329;DHT22;6230;52.390;10.256;2024-01-30T05:53:43;9.10;63.00
12329;DHT22;6230;52.390;10.256;2024-01-30T05:56:09;9.10;63.10
12329;DHT22;6230;52.390;10.256;2024-01-30T05:58:34;9.10;63.10
12329;DHT22;6230;52.390;10.256;2024-01-30T06:01:00;9.10;63.20
12329;DHT22;6230;52.390;10.256;2024-01-30T06:03:26;9.10;63.30
12329;DHT22;6230;52.390;10.256;2024-01-30T06:05:51;9.10;63.30
12329;DHT22;6230;52.390;10.256;2024-01-30T06:08:17;9.00;63.30
12329;DHT22;6230;52.390;10.256;2024-01-30T06:10:43;9.10;63.40
12329;DHT22;6230;52.390;10.256;2024-01-30T06:13:09;9.00;63.40
12329;DHT22;6230;52.390;10.256;2024-01-30T06:15:34;9.00;63.50
12329;DHT22;6230;52.390;10.256;2024-01-30T06:18:00;9.00;63.70
12329;DHT22;6230;52.390;10.256;2024-01-30T06:20:25;9.00;63.70
12329;DHT22;6230;52.390;10.256;2024-01-30T06:22:51;9.00;63.70
12329;DHT22;6230;52.390;10.256;2024-01-30T06:25:16;9.00;63.60
12329;DHT22;6230;52.390;10.256;2024-01-30T06:27:42;9.00;63.70
12329;DHT22;6230;52.390;10.256;2024-01-30T06:30:08;9.00;63.60
12329;DHT22;6230;52.390;10.256;2024-01-30T06:32:35;9.00;63.60
12329;DHT22;6230;52.390;10.256;2024-01-30T06:35:01;9.00;63.70
12329;DHT22;6230;52.390;10.256;2024-01-30T06:37:27;9.00;63.80
12329;DHT22;6230;52.390;10.256;2024-01-30T06:39:52;9.00;63.80
12329;DHT22;6230;52.390;10.256;2024-01-30T06:42:18;9.00;63.80
12329;DHT22;6230;52.390;10.256;2024-01-30T06:44:44;8.90;63.80
12329;DHT22;6230;52.390;10.256;2024-01-30T06:47:10;8.90;63.90
12329;DHT22;6230;52.390;10.256;2024-01-30T06:49:36;8.90;63.90
12329;DHT22;6230;52.390;10.256;2024-01-30T06:52:08;8.80;64.00
12329;DHT22;6230;52.390;10.256;2024-01-30T06:54:33;8.80;64.10
12329;DHT22;6230;52.390;10.256;2024-01-30T06:56:59;8.80;64.00
12329;DHT22;6230;52.390;10.256;2024-01-30T06:59:25;8.80;64.10
12329;DHT22;6230;52.390;10.256;2024-01-30T07:01:51;8.80;64.00
12329;DHT22;6230;52.390;10.256;2024-01-30T07:04:16;8.80;64.00
12329;DHT22;6230;52.390;10.256;2024-01-30T07:06:43;8.90;64.10
12329;DHT22;6230;52.390;10.256;2024-01-30T07:09:09;8.90;64.10
12329;DHT22;6230;52.390;10.256;2024-01-30T07:11:34;8.90;64.10
12329;DHT22;6230;52.390;10.256;2024-01-30T07:14:00;8.90;64.00
12329;DHT22;6230;52.390;10.256;2024-01-30T07:16:29;8.90;64.00
12329;DHT22;6230;52.390;10.256;2024-01-30T07:18:54;8.90;64.10
12329;DHT22;6230;52.390;10.256;2024-01-30T07:21:21;8.90;64.20
12329;DHT22;6230;52.390;10.256;2024-01-30T07:23:50;8.90;64.30
12329;DHT22;6230;52.390;10.256;2024-01-30T07:26:16;8.90;64.30
12329;DHT22;6230;52.390;10.256;2024-01-30T07:28:41;8.90;64.40
12329;DHT22;6230;52.390;10.256;2024-01-30T07:31:07;8.90;64.50
12329;DHT22;6230;52.390;10.256;2024-01-30T07:33:32;8.90;64.50
12329;DHT22;6230;52.390;10.256;2024-01-30T07:35:58;8.90;64.60
12329;DHT22;6230;52.390;10.256;2024-01-30T07:38:23;8.90;64.50
12329;DHT22;6230;52.390;10.256;2024-01-30T07:40:49;8.90;64.50
12329;DHT22;6230;52.390;10.256;2024-01-30T07:43:15;8.90;64.50
12329;DHT22;6230;52.390;10.256;2024-01-30T07:45:40;8.90;64.60
12329;DHT22;6230;52.390;10.256;2024-01-30T07:48:06;8.90;64.60
12329;DHT22;6230;52.390;10.256;2024-01-30T07:50:32;9.00;64.70
12329;DHT22;6230;52.390;10.256;2024-01-30T07:52:59;9.00;64.70
12329;DHT22;6230;52.390;10.256;2024-01-30T07:55:25;9.00;64.70
12329;DHT22;6230;52.390;10.256;2024-01-30T07:57:54;9.00;64.60
12329;DHT22;6230;52.390;10.256;2024-01-30T08:00:21;9.00;64.60
12329;DHT22;6230;52.390;10.256;2024-01-30T08:02:47;9.00;64.70
12329;DHT22;6230;52.390;10.256;2024-01-30T08:05:13;9.00;64.60
12329;DHT22;6230;52.390;10.256;2024-01-30T08:07:40;9.10;64.80
12329;DHT22;6230;52.390;10.256;2024-01-30T08:10:07;9.10;64.90
12329;DHT22;6230;52.390;10.256;2024-01-30T08:12:32;9.10;64.90
12329;DHT22;6230;52.390;10.256;2024-01-30T08:14:58;9.10;64.90
12329;DHT22;6230;52.390;10.256;2024-01-30T08:17:24;9.20;64.90
12329;DHT22;6230;52.390;10.256;2024-01-30T08:19:49;9.20;64.90
12329;DHT22;6230;52.390;10.256;2024-01-30T08:22:15;9.20;65.00
12329;DHT22;6230;52.390;10.256;2024-01-30T08:24:41;9.20;65.20
12329;DHT22;6230;52.390;10.256;2024-01-30T08:27:07;9.20;65.20
12329;DHT22;6230;52.390;10.256;2024-01-30T08:29:35;9.20;65.20
12329;DHT22;6230;52.390;10.256;2024-01-30T08:32:01;9.30;65.20
12329;DHT22;6230;52.390;10.256;2024-01-30T08:34:26;9.30;65.20
12329;DHT22;6230;52.390;10.256;2024-01-30T08:36:52;9.40;66.00
12329;DHT22;6230;52.390;10.256;2024-01-30T08:39:18;9.40;65.20
12329;DHT22;6230;52.390;10.256;2024-01-30T08:41:43;9.40;65.10
12329;DHT22;6230;52.390;10.256;2024-01-30T08:44:09;9.50;65.20
12329;DHT22;6230;52.390;10.256;2024-01-30T08:46:36;9.50;65.20
12329;DHT22;6230;52.390;10.256;2024-01-30T08:49:02;9.60;65.10
12329;DHT22;6230;52.390;10.256;2024-01-30T08:51:29;9.60;65.20
12329;DHT22;6230;52.390;10.256;2024-01-30T08:53:55;9.60;65.20
12329;DHT22;6230;52.390;10.256;2024-01-30T08:56:20;9.70;65.20
12329;DHT22;6230;52.390;10.256;2024-01-30T08:58:46;9.70;65.20
12329;DHT22;6230;52.390;10.256;2024-01-30T09:01:11;9.80;65.20
12329;DHT22;6230;52.390;10.256;2024-01-30T09:03:37;9.80;65.30
12329;DHT22;6230;52.390;10.256;2024-01-30T09:06:08;9.80;65.20
12329;DHT22;6230;52.390;10.256;2024-01-30T09:08:34;9.90;65.40
12329;DHT22;6230;52.390;10.256;2024-01-30T09:10:59;10.00;65.40
12329;DHT22;6230;52.390;10.256;2024-01-30T09:13:25;10.00;65.40
12329;DHT22;6230;52.390;10.256;2024-01-30T09:15:50;10.00;65.70
12329;DHT22;6230;52.390;10.256;2024-01-30T09:18:16;10.00;65.40
12329;DHT22;6230;52.390;10.256;2024-01-30T09:20:42;10.00;65.40
12329;DHT22;6230;52.390;10.256;2024-01-30T09:23:07;10.10;65.40
12329;DHT22;6230;52.390;10.256;2024-01-30T09:25:33;10.10;65.40
12329;DHT22;6230;52.390;10.256;2024-01-30T09:27:59;10.10;65.30
12329;DHT22;6230;52.390;10.256;2024-01-30T09:30:25;10.20;65.40
12329;DHT22;6230;52.390;10.256;2024-01-30T09:32:50;10.20;65.30
12329;DHT22;6230;52.390;10.256;2024-01-30T09:35:16;10.20;65.40
12329;DHT22;6230;52.390;10.256;2024-01-30T09:37:42;10.30;65.50
12329;DHT22;6230;52.390;10.256;2024-01-30T09:40:08;10.30;65.40
12329;DHT22;6230;52.390;10.256;2024-01-30T09:42:35;10.30;65.50
12329;DHT22;6230;52.390;10.256;2024-01-30T09:45:05;10.40;65.50
12329;DHT22;6230;52.390;10.256;2024-01-30T09:47:32;10.40;65.50
12329;DHT22;6230;52.390;10.256;2024-01-30T09:50:02;10.40;65.40
12329;DHT22;6230;52.390;10.256;2024-01-30T09:52:28;10.50;65.40
12329;DHT22;6230;52.390;10.256;2024-01-30T09:54:54;10.50;65.40
12329;DHT22;6230;52.390;10.256;2024-01-30T09:57:20;10.60;65.40
12329;DHT22;6230;52.390;10.256;2024-01-30T09:59:46;10.60;65.30
12329;DHT22;6230;52.390;10.256;2024-01-30T10:02:12;10.70;65.50
12329;DHT22;6230;52.390;10.256;2024-01-30T10:04:38;10.70;65.40
12329;DHT22;6230;52.390;10.256;2024-01-30T10:07:03;10.80;65.40
12329;DHT22;6230;52.390;10.256;2024-01-30T10:09:32;10.80;65.40
12329;DHT22;6230;52.390;10.256;2024-01-30T10:11:58;10.80;65.40
12329;DHT22;6230;52.390;10.256;2024-01-30T10:14:24;10.90;65.50
12329;DHT22;6230;52.390;10.256;2024-01-30T10:16:50;11.00;65.70
12329;DHT22;6230;52.390;10.256;2024-01-30T10:19:16;11.00;65.70
12329;DHT22;6230;52.390;10.256;2024-01-30T10:21:41;11.10;65.80
12329;DHT22;6230;52.390;10.256;2024-01-30T10:24:07;11.10;65.80
12329;DHT22;6230;52.390;10.256;2024-01-30T10:26:33;11.20;65.70
12329;DHT22;6230;52.390;10.256;2024-01-30T10:28:59;11.30;65.80
12329;DHT22;6230;52.390;10.256;2024-01-30T10:31:25;11.40;65.80
12329;DHT22;6230;52.390;10.256;2024-01-30T10:33:50;11.40;65.70
12329;DHT22;6230;52.390;10.256;2024-01-30T10:36:17;11.50;65.60
12329;DHT22;6230;52.390;10.256;2024-01-30T10:38:43;11.50;65.50
12329;DHT22;6230;52.390;10.256;2024-01-30T10:41:13;11.50;65.50
12329;DHT22;6230;52.390;10.256;2024-01-30T10:43:50;11.50;65.50
12329;DHT22;6230;52.390;10.256;2024-01-30T10:46:20;11.50;65.50
12329;DHT22;6230;52.390;10.256;2024-01-30T10:48:57;11.60;65.50
12329;DHT22;6230;52.390;10.256;2024-01-30T10:51:26;11.60;65.50
12329;DHT22;6230;52.390;10.256;2024-01-30T10:53:52;11.60;65.50
12329;DHT22;6230;52.390;10.256;2024-01-30T10:56:20;11.60;65.50
12329;DHT22;6230;52.390;10.256;2024-01-30T10:58:50;11.60;65.50
12329;DHT22;6230;52.390;10.256;2024-01-30T11:01:19;11.70;65.70
12329;DHT22;6230;52.390;10.256;2024-01-30T11:03:45;11.70;65.60
12329;DHT22;6230;52.390;10.256;2024-01-30T11:06:11;11.70;65.60
12329;DHT22;6230;52.390;10.256;2024-01-30T11:08:44;11.80;65.60
12329;DHT22;6230;52.390;10.256;2024-01-30T11:11:10;11.80;65.70
12329;DHT22;6230;52.390;10.256;2024-01-30T11:13:36;11.80;65.50
12329;DHT22;6230;52.390;10.256;2024-01-30T11:16:02;11.90;65.60
12329;DHT22;6230;52.390;10.256;2024-01-30T11:18:32;11.90;65.50
12329;DHT22;6230;52.390;10.256;2024-01-30T11:21:01;12.00;65.50
12329;DHT22;6230;52.390;10.256;2024-01-30T11:23:28;12.00;65.40
12329;DHT22;6230;52.390;10.256;2024-01-30T11:25:54;12.00;65.50
12329;DHT22;6230;52.390;10.256;2024-01-30T11:28:21;12.00;65.40
12329;DHT22;6230;52.390;10.256;2024-01-30T11:30:47;12.00;65.40
12329;DHT22;6230;52.390;10.256;2024-01-30T11:33:30;12.10;65.40
12329;DHT22;6230;52.390;10.256;2024-01-30T11:35:57;12.10;65.40
12329;DHT22;6230;52.390;10.256;2024-01-30T11:38:26;12.10;65.30
12329;DHT22;6230;52.390;10.256;2024-01-30T11:40:54;12.10;65.30
12329;DHT22;6230;52.390;10.256;2024-01-30T11:43:20;12.10;65.20
12329;DHT22;6230;52.390;10.256;2024-01-30T11:45:45;12.20;65.30
12329;DHT22;6230;52.390;10.256;2024-01-30T11:48:12;12.20;65.20
12329;DHT22;6230;52.390;10.256;2024-01-30T11:50:38;12.20;65.10
12329;DHT22;6230;52.390;10.256;2024-01-30T11:53:05;12.20;65.10
12329;DHT22;6230;52.390;10.256;2024-01-30T11:55:30;12.20;65.10
12329;DHT22;6230;52.390;10.256;2024-01-30T11:57:59;12.20;65.00
12329;DHT22;6230;52.390;10.256;2024-01-30T12:00:25;12.20;65.00
12329;DHT22;6230;52.390;10.256;2024-01-30T12:02:52;12.20;65.00
12329;DHT22;6230;52.390;10.256;2024-01-30T12:05:21;12.20;65.00
12329;DHT22;6230;52.390;10.256;2024-01-30T12:07:47;12.30;65.10
12329;DHT22;6230;52.390;10.256;2024-01-30T12:10:13;12.30;65.10
12329;DHT22;6230;52.390;10.256;2024-01-30T12:12:40;12.30;65.00
12329;DHT22;6230;52.390;10.256;2024-01-30T12:15:07;12.30;65.00
12329;DHT22;6230;52.390;10.256;2024-01-30T12:17:33;12.30;65.00
12329;DHT22;6230;52.390;10.256;2024-01-30T12:20:08;12.30;65.00
12329;DHT22;6230;52.390;10.256;2024-01-30T12:22:39;12.40;65.00
12329;DHT22;6230;52.390;10.256;2024-01-30T12:25:08;12.40;65.00
12329;DHT22;6230;52.390;10.256;2024-01-30T12:27:35;12.40;65.00
12329;DHT22;6230;52.390;10.256;2024-01-30T12:30:01;12.40;65.00
12329;DHT22;6230;52.390;10.256;2024-01-30T12:32:27;12.40;64.90
12329;DHT22;6230;52.390;10.256;2024-01-30T12:34:56;12.40;64.90
12329;DHT22;6230;52.390;10.256;2024-01-30T12:37:22;12.40;64.90
12329;DHT22;6230;52.390;10.256;2024-01-30T12:39:53;12.40;65.00
12329;DHT22;6230;52.390;10.256;2024-01-30T12:42:21;12.50;65.00
12329;DHT22;6230;52.390;10.256;2024-01-30T12:44:48;12.60;65.30
12329;DHT22;6230;52.390;10.256;2024-01-30T12:47:14;12.70;65.60
12329;DHT22;6230;52.390;10.256;2024-01-30T12:49:44;12.90;65.70
12329;DHT22;6230;52.390;10.256;2024-01-30T12:52:11;13.10;65.60
12329;DHT22;6230;52.390;10.256;2024-01-30T12:54:37;13.30;65.50
12329;DHT22;6230;52.390;10.256;2024-01-30T12:57:03;13.50;65.20
12329;DHT22;6230;52.390;10.256;2024-01-30T12:59:29;13.70;65.20
12329;DHT22;6230;52.390;10.256;2024-01-30T13:01:55;13.80;65.10
12329;DHT22;6230;52.390;10.256;2024-01-30T13:04:20;14.00;65.00
12329;DHT22;6230;52.390;10.256;2024-01-30T13:06:46;14.20;65.00
12329;DHT22;6230;52.390;10.256;2024-01-30T13:09:11;14.30;64.70
12329;DHT22;6230;52.390;10.256;2024-01-30T13:11:37;14.40;64.40
12329;DHT22;6230;52.390;10.256;2024-01-30T13:14:03;14.40;64.20
12329;DHT22;6230;52.390;10.256;2024-01-30T13:16:28;14.40;64.10
12329;DHT22;6230;52.390;10.256;2024-01-30T13:18:54;14.30;64.20
12329;DHT22;6230;52.390;10.256;2024-01-30T13:21:21;14.30;64.30
12329;DHT22;6230;52.390;10.256;2024-01-30T13:23:46;14.20;64.20
12329;DHT22;6230;52.390;10.256;2024-01-30T13:26:12;14.20;64.20
12329;DHT22;6230;52.390;10.256;2024-01-30T13:28:37;14.10;64.10
12329;DHT22;6230;52.390;10.256;2024-01-30T13:31:03;14.10;64.20
12329;DHT22;6230;52.390;10.256;2024-01-30T13:33:30;14.00;64.20
12329;DHT22;6230;52.390;10.256;2024-01-30T13:35:56;14.00;64.40
12329;DHT22;6230;52.390;10.256;2024-01-30T13:38:21;14.00;64.50
12329;DHT22;6230;52.390;10.256;2024-01-30T13:40:47;14.00;64.40
12329;DHT22;6230;52.390;10.256;2024-01-30T13:43:12;14.00;64.40
12329;DHT22;6230;52.390;10.256;2024-01-30T13:45:38;14.00;64.40
12329;DHT22;6230;52.390;10.256;2024-01-30T13:48:04;14.00;64.20
12329;DHT22;6230;52.390;10.256;2024-01-30T13:50:29;14.00;64.20
12329;DHT22;6230;52.390;10.256;2024-01-30T13:52:55;14.00;64.30
12329;DHT22;6230;52.390;10.256;2024-01-30T13:55:21;14.00;64.20
12329;DHT22;6230;52.390;10.256;2024-01-30T13:57:46;13.90;64.10
12329;DHT22;6230;52.390;10.256;2024-01-30T14:00:12;13.90;64.10
12329;DHT22;6230;52.390;10.256;2024-01-30T14:02:41;13.80;64.00
12329;DHT22;6230;52.390;10.256;2024-01-30T14:05:07;13.80;64.00
12329;DHT22;6230;52.390;10.256;2024-01-30T14:07:33;13.70;64.00
12329;DHT22;6230;52.390;10.256;2024-01-30T14:09:59;13.70;64.00
12329;DHT22;6230;52.390;10.256;2024-01-30T14:12:25;13.60;64.00
12329;DHT22;6230;52.390;10.256;2024-01-30T14:14:50;13.50;64.00
12329;DHT22;6230;52.390;10.256;2024-01-30T14:17:16;13.50;64.00
12329;DHT22;6230;52.390;10.256;2024-01-30T14:19:42;13.50;64.10
12329;DHT22;6230;52.390;10.256;2024-01-30T14:22:07;13.40;64.00
12329;DHT22;6230;52.390;10.256;2024-01-30T14:24:33;13.40;64.00
12329;DHT22;6230;52.390;10.256;2024-01-30T14:26:59;13.40;64.00
12329;DHT22;6230;52.390;10.256;2024-01-30T14:29:25;13.40;64.10
12329;DHT22;6230;52.390;10.256;2024-01-30T14:31:50;13.40;64.10
12329;DHT22;6230;52.390;10.256;2024-01-30T14:34:16;13.30;64.00
12329;DHT22;6230;52.390;10.256;2024-01-30T14:36:42;13.30;64.00
12329;DHT22;6230;52.390;10.256;2024-01-30T14:39:08;13.30;64.00
12329;DHT22;6230;52.390;10.256;2024-01-30T14:41:33;13.30;64.00
12329;DHT22;6230;52.390;10.256;2024-01-30T14:43:59;13.30;64.00
12329;DHT22;6230;52.390;10.256;2024-01-30T14:46:25;13.20;64.20
12329;DHT22;6230;52.390;10.256;2024-01-30T14:48:52;13.20;64.00
12329;DHT22;6230;52.390;10.256;2024-01-30T14:51:18;13.20;64.10
12329;DHT22;6230;52.390;10.256;2024-01-30T14:53:43;13.20;64.10
12329;DHT22;6230;52.390;10.256;2024-01-30T14:56:10;13.10;64.10
12329;DHT22;6230;52.390;10.256;2024-01-30T14:58:36;13.10;64.10
12329;DHT22;6230;52.390;10.256;2024-01-30T15:01:02;13.10;64.10
12329;DHT22;6230;52.390;10.256;2024-01-30T15:03:28;13.10;64.10
12329;DHT22;6230;52.390;10.256;2024-01-30T15:05:54;13.10;64.10
12329;DHT22;6230;52.390;10.256;2024-01-30T15:08:21;13.10;64.10
12329;DHT22;6230;52.390;10.256;2024-01-30T15:10:46;13.00;64.10
12329;DHT22;6230;52.390;10.256;2024-01-30T15:13:12;13.00;64.10
12329;DHT22;6230;52.390;10.256;2024-01-30T15:15:37;13.00;64.20
12329;DHT22;6230;52.390;10.256;2024-01-30T15:18:04;12.90;64.20
12329;DHT22;6230;52.390;10.256;2024-01-30T15:20:29;12.90;64.20
12329;DHT22;6230;52.390;10.256;2024-01-30T15:22:57;12.90;64.20
12329;DHT22;6230;52.390;10.256;2024-01-30T15:25:22;12.90;64.20
12329;DHT22;6230;52.390;10.256;2024-01-30T15:27:48;12.90;64.20
12329;DHT22;6230;52.390;10.256;2024-01-30T15:30:14;12.90;64.20
12329;DHT22;6230;52.390;10.256;2024-01-30T15:32:39;12.90;64.20